createdAt,value
2023-02-24T00:02:00.930Z,26.92
2023-02-24T00:04:32.550Z,25.60
2023-02-24T00:07:00.787Z,26.02
2023-02-24T00:09:31.699Z,28.05
2023-02-24T00:12:05.676Z,25.27
2023-02-24T00:14:36.618Z,26.60
2023-02-24T00:17:08.069Z,29.13
2023-02-24T00:19:37.501Z,28.63
2023-02-24T00:22:06.757Z,29.23
2023-02-24T00:24:36.682Z,29.13
2023-02-24T00:27:12.385Z,28.35
2023-02-24T00:29:42.389Z,27.63
2023-02-24T00:32:13.825Z,28.85
2023-02-24T00:34:42.615Z,27.35
2023-02-24T00:37:13.224Z,27.50
2023-02-24T00:39:42.428Z,27.95
2023-02-24T00:42:10.134Z,28.55
2023-02-24T00:44:40.566Z,27.25
2023-02-24T00:47:10.636Z,26.40
2023-02-24T00:49:42.759Z,28.13
2023-02-24T00:52:14.660Z,27.77
2023-02-24T00:54:43.391Z,26.50
2023-02-24T00:57:11.665Z,30.42
2023-02-24T00:59:40.535Z,27.05
2023-02-24T01:02:08.999Z,29.88
2023-02-24T01:04:37.973Z,31.02
2023-02-24T01:07:11.169Z,28.83
2023-02-24T01:09:42.530Z,29.73
2023-02-24T01:12:27.697Z,29.73
2023-02-24T01:14:56.943Z,27.77
2023-02-24T01:17:24.683Z,27.98
2023-02-24T01:20:00.764Z,28.60
2023-02-24T01:22:29.223Z,28.30
2023-02-24T01:24:56.870Z,27.92
2023-02-24T01:27:25.436Z,29.75
2023-02-24T01:29:54.185Z,30.17
2023-02-24T01:32:22.032Z,30.15
2023-02-24T01:34:53.639Z,29.35
2023-02-24T01:37:21.521Z,26.25
2023-02-24T01:39:51.782Z,26.58
2023-02-24T01:42:22.178Z,26.98
2023-02-24T01:44:52.762Z,28.20
2023-02-24T01:47:21.949Z,30.90
2023-02-24T01:49:54.190Z,29.40
2023-02-24T01:52:25.717Z,29.13
2023-02-24T01:55:04.667Z,31.42
2023-02-24T01:57:36.303Z,30.92
2023-02-24T02:00:11.544Z,29.58
2023-02-24T02:02:42.947Z,31.90
2023-02-24T02:05:12.456Z,32.70
2023-02-24T02:07:42.047Z,30.83
2023-02-24T02:10:11.463Z,30.38
2023-02-24T02:12:44.587Z,30.30
2023-02-24T02:15:15.687Z,30.33
2023-02-24T02:17:45.942Z,31.63
2023-02-24T02:20:24.626Z,30.95
2023-02-24T02:23:21.719Z,31.65
2023-02-24T02:26:09.123Z,33.92
2023-02-24T02:28:54.159Z,32.30
2023-02-24T02:31:46.816Z,32.78
2023-02-24T02:34:33.825Z,30.90
2023-02-24T02:37:13.757Z,33.40
2023-02-24T02:40:00.349Z,31.70
2023-02-24T02:42:30.982Z,30.52
2023-02-24T02:45:06.190Z,31.90
2023-02-24T02:47:41.442Z,31.98
2023-02-24T02:50:13.205Z,31.27
2023-02-24T02:52:43.506Z,31.77
2023-02-24T02:55:22.818Z,34.03
2023-02-24T02:57:53.518Z,32.42
2023-02-24T03:00:30.269Z,31.77
2023-02-24T03:03:09.059Z,31.05
2023-02-24T03:05:47.241Z,31.63
2023-02-24T03:08:25.900Z,30.05
2023-02-24T03:10:57.731Z,31.70
2023-02-24T03:13:31.139Z,31.27
2023-02-24T03:16:04.652Z,32.45
2023-02-24T03:18:38.188Z,28.30
2023-02-24T03:21:08.079Z,31.02
2023-02-24T03:23:40.691Z,32.75
2023-02-24T03:26:17.319Z,30.27
2023-02-24T03:29:07.054Z,32.40
2023-02-24T03:31:47.116Z,30.88
2023-02-24T03:34:41.862Z,30.45
2023-02-24T03:37:11.410Z,30.70
2023-02-24T03:39:39.835Z,30.50
2023-02-24T03:42:13.338Z,31.92
2023-02-24T03:44:41.532Z,30.40
2023-02-24T03:47:10.198Z,31.90
2023-02-24T03:49:39.886Z,30.83
2023-02-24T03:52:13.523Z,29.58
2023-02-24T03:55:12.363Z,32.22
2023-02-24T03:57:55.731Z,31.67
2023-02-24T04:00:35.831Z,30.90
2023-02-24T04:03:25.719Z,31.25
2023-02-24T04:06:16.218Z,32.33
2023-02-24T04:08:53.605Z,33.28
2023-02-24T04:11:27.471Z,31.58
2023-02-24T04:14:06.868Z,34.00
2023-02-24T04:16:41.694Z,31.80
2023-02-24T04:19:14.233Z,31.35
2023-02-24T04:21:44.531Z,31.35
2023-02-24T04:24:16.543Z,32.05
2023-02-24T04:26:46.573Z,29.95
2023-02-24T04:29:24.054Z,31.10
2023-02-24T04:31:58.955Z,29.08
2023-02-24T04:34:32.747Z,29.60
2023-02-24T04:37:03.622Z,29.35
2023-02-24T04:39:33.119Z,27.75
2023-02-24T04:42:02.068Z,27.95
2023-02-24T04:44:30.233Z,29.15
2023-02-24T04:46:59.152Z,28.60
2023-02-24T04:49:28.579Z,28.83
2023-02-24T04:51:58.185Z,27.90
2023-02-24T04:54:25.810Z,29.25
2023-02-24T04:56:54.126Z,29.48
2023-02-24T04:59:22.511Z,31.27
2023-02-24T05:01:55.030Z,28.90
2023-02-24T05:04:21.871Z,29.52
2023-02-24T05:06:50.512Z,29.63
2023-02-24T05:09:19.219Z,28.60
2023-02-24T05:11:49.510Z,29.20
2023-02-24T05:14:21.079Z,29.02
2023-02-24T05:16:51.117Z,29.00
2023-02-24T05:19:35.634Z,29.60
2023-02-24T05:22:07.831Z,28.30
2023-02-24T05:24:35.556Z,28.50
2023-02-24T05:27:04.410Z,29.92
2023-02-24T05:29:35.410Z,32.33
2023-02-24T05:32:06.344Z,31.15
2023-02-24T05:34:36.318Z,33.45
2023-02-24T05:37:10.411Z,36.58
2023-02-24T05:39:41.341Z,32.38
2023-02-24T05:42:08.502Z,34.60
2023-02-24T05:44:36.409Z,33.58
2023-02-24T05:47:06.118Z,35.42
2023-02-24T05:49:35.680Z,35.83
2023-02-24T05:52:10.028Z,34.47
2023-02-24T05:54:40.324Z,34.95
2023-02-24T05:57:12.723Z,34.35
2023-02-24T05:59:42.375Z,34.80
2023-02-24T06:02:13.580Z,35.95
2023-02-24T06:04:58.875Z,36.70
2023-02-24T06:07:28.835Z,34.95
2023-02-24T06:09:58.410Z,35.60
2023-02-24T06:12:31.786Z,34.88
2023-02-24T06:15:02.426Z,36.88
2023-02-24T06:17:29.931Z,35.53
2023-02-24T06:19:58.436Z,35.08
2023-02-24T06:22:27.512Z,36.03
2023-02-24T06:24:57.386Z,35.83
2023-02-24T06:27:25.597Z,36.50
2023-02-24T06:29:55.055Z,35.30
2023-02-24T06:32:26.274Z,35.50
2023-02-24T06:34:55.660Z,36.33
2023-02-24T06:37:26.248Z,37.65
2023-02-24T06:39:54.003Z,37.17
2023-02-24T06:42:25.924Z,36.65
2023-02-24T06:44:55.273Z,36.97
2023-02-24T06:47:24.326Z,37.63
2023-02-24T06:49:53.436Z,36.30
2023-02-24T06:52:22.119Z,36.97
2023-02-24T06:54:52.537Z,36.97
2023-02-24T06:57:21.595Z,37.67
2023-02-24T06:59:49.784Z,36.83
2023-02-24T07:02:17.713Z,36.03
2023-02-24T07:04:49.942Z,38.78
2023-02-24T07:07:19.826Z,37.20
2023-02-24T07:09:47.615Z,39.80
2023-02-24T07:12:21.424Z,39.35
2023-02-24T07:14:51.046Z,40.42
2023-02-24T07:17:21.052Z,41.70
2023-02-24T07:19:49.040Z,40.90
2023-02-24T07:22:18.278Z,41.60
2023-02-24T07:24:46.809Z,41.25
2023-02-24T07:27:24.297Z,40.65
2023-02-24T07:29:53.767Z,37.45
2023-02-24T07:32:23.906Z,39.78
2023-02-24T07:34:52.622Z,38.33
2023-02-24T07:37:25.404Z,42.78
2023-02-24T07:39:55.366Z,41.80
2023-02-24T07:42:24.341Z,41.22
2023-02-24T07:44:52.767Z,42.42
2023-02-24T07:47:22.096Z,43.83
2023-02-24T07:49:51.798Z,42.42
2023-02-24T07:52:20.485Z,42.63
2023-02-24T07:54:50.690Z,42.67
2023-02-24T07:57:19.399Z,41.10
2023-02-24T07:59:48.756Z,42.30
2023-02-24T08:02:19.256Z,42.10
2023-02-24T08:04:52.644Z,43.22
2023-02-24T08:07:25.571Z,40.70
2023-02-24T08:10:09.936Z,41.25
2023-02-24T08:12:43.578Z,41.58
2023-02-24T08:15:25.186Z,41.22
2023-02-24T08:18:00.637Z,42.13
2023-02-24T08:20:52.290Z,42.40
2023-02-24T08:23:20.709Z,41.13
2023-02-24T08:25:49.678Z,42.15
2023-02-24T08:28:19.184Z,42.55
2023-02-24T08:30:52.262Z,39.20
2023-02-24T08:33:23.391Z,40.70
2023-02-24T08:36:02.684Z,37.92
2023-02-24T08:38:42.764Z,37.10
2023-02-24T08:41:18.930Z,37.08
2023-02-24T08:43:50.017Z,35.13
2023-02-24T08:46:27.076Z,35.25
2023-02-24T08:48:58.513Z,36.03
2023-02-24T08:51:35.607Z,34.45
2023-02-24T08:56:50.993Z,33.42
2023-02-24T08:59:35.618Z,34.33
2023-02-24T09:02:30.833Z,32.83
2023-02-24T09:05:13.874Z,33.00
2023-02-24T09:07:45.582Z,31.73
2023-02-24T09:10:19.558Z,32.35
2023-02-24T09:12:49.607Z,32.35
2023-02-24T09:15:17.960Z,33.15
2023-02-24T09:17:47.064Z,32.65
2023-02-24T09:20:34.705Z,31.73
2023-02-24T09:23:05.499Z,32.13
2023-02-24T09:25:51.231Z,32.05
2023-02-24T09:28:26.042Z,31.55
2023-02-24T09:30:56.216Z,32.90
2023-02-24T09:33:39.234Z,30.83
2023-02-24T09:36:31.007Z,30.65
2023-02-24T09:39:02.565Z,30.67
2023-02-24T09:41:33.337Z,30.25
2023-02-24T09:44:18.804Z,31.52
2023-02-24T09:46:56.083Z,30.58
2023-02-24T09:49:41.284Z,26.88
2023-02-24T09:52:18.810Z,24.88
2023-02-24T09:55:07.991Z,22.42
2023-02-24T09:58:04.386Z,22.25
2023-02-24T10:00:45.083Z,21.98
2023-02-24T10:03:43.127Z,21.17
2023-02-24T10:06:23.251Z,21.27
2023-02-24T10:09:11.978Z,20.00
2023-02-24T10:11:54.787Z,21.60
2023-02-24T10:14:24.183Z,21.95
2023-02-24T10:17:12.016Z,20.20
2023-02-24T10:19:41.658Z,19.27
2023-02-24T10:22:29.216Z,19.42
2023-02-24T10:25:37.230Z,19.58
2023-02-24T10:28:37.520Z,18.40
2023-02-24T10:31:26.445Z,17.95
2023-02-24T10:34:06.842Z,17.15
2023-02-24T10:36:37.425Z,18.05
2023-02-24T10:39:21.329Z,17.10
2023-02-24T10:41:58.879Z,17.65
2023-02-24T10:44:37.120Z,17.73
2023-02-24T10:47:13.852Z,17.40
2023-02-24T10:49:43.640Z,17.77
2023-02-24T10:52:40.429Z,17.88
2023-02-24T10:55:35.176Z,17.85
2023-02-24T10:58:07.702Z,18.35
2023-02-24T11:01:01.856Z,18.17
2023-02-24T11:03:46.577Z,18.70
2023-02-24T11:06:32.665Z,18.92
2023-02-24T11:09:19.950Z,17.58
2023-02-24T11:12:05.482Z,18.52
2023-02-24T11:15:03.138Z,18.70
2023-02-24T11:17:32.162Z,18.33
2023-02-24T11:20:11.856Z,18.42
2023-02-24T11:22:43.172Z,18.70
2023-02-24T11:25:47.566Z,19.08
2023-02-24T11:28:31.832Z,18.98
2023-02-24T11:31:15.263Z,17.38
2023-02-24T11:34:10.358Z,15.40
2023-02-24T11:36:59.083Z,16.55
2023-02-24T11:39:53.353Z,15.07
2023-02-24T11:42:33.309Z,15.75
2023-02-24T11:45:19.887Z,16.30
2023-02-24T11:48:00.258Z,15.05
2023-02-24T11:50:53.455Z,16.00
2023-02-24T11:53:50.895Z,16.75
2023-02-24T11:59:12.604Z,16.30
2023-02-24T12:01:47.350Z,15.95
2023-02-24T12:04:34.172Z,16.73
2023-02-24T12:07:33.874Z,15.43
2023-02-24T12:10:17.126Z,16.50
2023-02-24T12:12:53.981Z,16.02
2023-02-24T12:15:24.974Z,15.77
2023-02-24T12:17:59.083Z,14.80
2023-02-24T12:20:42.843Z,14.95
2023-02-24T12:23:25.123Z,14.25
2023-02-24T12:26:14.309Z,13.35
2023-02-24T12:29:08.177Z,14.68
2023-02-24T12:31:56.562Z,12.95
2023-02-24T12:34:31.103Z,13.75
2023-02-24T12:37:18.201Z,12.52
2023-02-24T12:40:03.332Z,12.32
2023-02-24T12:42:56.854Z,11.30
2023-02-24T12:45:37.624Z,11.35
2023-02-24T12:48:08.034Z,12.70
2023-02-24T12:50:49.464Z,11.90
2023-02-24T12:53:37.458Z,12.32
2023-02-24T12:56:29.577Z,12.85
2023-02-24T12:59:05.875Z,14.10
2023-02-24T13:01:54.364Z,13.57
2023-02-24T13:04:52.168Z,13.70
2023-02-24T13:07:37.845Z,13.38
2023-02-24T13:10:21.482Z,12.70
2023-02-24T13:12:58.044Z,11.52
2023-02-24T13:15:32.327Z,12.38
2023-02-24T13:18:02.154Z,10.80
2023-02-24T13:20:36.882Z,11.35
2023-02-24T13:23:20.714Z,10.32
2023-02-24T13:25:53.769Z,10.90
2023-02-24T13:28:25.525Z,10.80
2023-02-24T13:31:03.082Z,12.07
2023-02-24T13:33:35.733Z,10.30
2023-02-24T13:36:23.781Z,11.35
2023-02-24T13:39:20.799Z,10.80
2023-02-24T13:41:49.163Z,11.35
2023-02-24T13:44:27.388Z,10.63
2023-02-24T13:47:29.007Z,11.80
2023-02-24T13:50:16.632Z,11.07
2023-02-24T13:52:59.646Z,11.00
2023-02-24T13:55:51.045Z,12.15
2023-02-24T13:58:40.749Z,10.43
2023-02-24T14:01:18.778Z,10.20
2023-02-24T14:04:06.299Z,10.18
2023-02-24T14:06:37.945Z,9.38
2023-02-24T14:09:07.018Z,9.30
2023-02-24T14:11:39.459Z,9.43
2023-02-24T14:14:17.780Z,8.90
2023-02-24T14:16:50.166Z,9.98
2023-02-24T14:19:18.505Z,9.15
2023-02-24T14:21:50.791Z,9.05
2023-02-24T14:24:20.488Z,10.10
2023-02-24T14:26:52.241Z,9.73
2023-02-24T14:29:22.961Z,9.55
2023-02-24T14:31:55.834Z,9.80
2023-02-24T14:34:28.812Z,10.18
2023-02-24T14:37:03.222Z,9.50
2023-02-24T14:39:35.130Z,9.82
2023-02-24T14:42:12.727Z,9.60
2023-02-24T14:44:45.858Z,10.98
2023-02-24T14:47:18.233Z,9.35
2023-02-24T14:50:03.473Z,9.70
2023-02-24T14:52:36.204Z,9.65
2023-02-24T14:55:22.544Z,9.68
2023-02-24T14:58:03.153Z,9.75
2023-02-24T15:00:37.811Z,9.57
2023-02-24T15:03:13.682Z,10.23
2023-02-24T15:05:46.203Z,9.07
2023-02-24T15:08:39.220Z,9.57
2023-02-24T15:11:23.108Z,9.85
2023-02-24T15:13:57.027Z,9.15
2023-02-24T15:16:35.833Z,10.75
2023-02-24T15:19:05.337Z,10.68
2023-02-24T15:21:40.992Z,10.15
2023-02-24T15:24:30.183Z,10.18
2023-02-24T15:27:02.453Z,10.98
2023-02-24T15:29:32.325Z,11.13
2023-02-24T15:32:01.838Z,11.13
2023-02-24T15:34:36.339Z,9.90
2023-02-24T15:37:17.974Z,11.05
2023-02-24T15:39:46.287Z,11.15
2023-02-24T15:42:29.062Z,11.43
2023-02-24T15:44:59.624Z,12.40
2023-02-24T15:47:34.805Z,11.80
2023-02-24T15:50:04.774Z,11.95
2023-02-24T15:52:34.538Z,10.30
2023-02-24T15:55:04.051Z,11.57
2023-02-24T15:57:34.749Z,12.00
2023-02-24T16:00:09.881Z,10.88
2023-02-24T16:02:37.843Z,12.90
2023-02-24T16:05:06.384Z,12.05
2023-02-24T16:07:38.780Z,12.30
2023-02-24T16:10:10.911Z,12.40
2023-02-24T16:12:47.006Z,13.05
2023-02-24T16:15:21.007Z,12.65
2023-02-24T16:17:52.367Z,13.60
2023-02-24T16:20:28.038Z,12.90
2023-02-24T16:22:58.741Z,12.77
2023-02-24T16:25:30.515Z,12.45
2023-02-24T16:27:58.641Z,13.15
2023-02-24T16:30:31.789Z,12.90
2023-02-24T16:33:05.139Z,13.93
2023-02-24T16:35:33.024Z,13.98
2023-02-24T16:38:01.098Z,14.15
2023-02-24T16:40:38.356Z,14.75
2023-02-24T16:43:06.950Z,15.43
2023-02-24T16:45:37.023Z,14.35
2023-02-24T16:48:09.865Z,15.27
2023-02-24T16:50:41.220Z,15.25
2023-02-24T16:53:16.189Z,13.25
2023-02-24T16:55:43.759Z,14.43
2023-02-24T16:58:13.242Z,14.48
2023-02-24T17:00:43.635Z,14.60
2023-02-24T17:03:21.087Z,14.82
2023-02-24T17:05:50.574Z,17.55
2023-02-24T17:08:19.093Z,17.80
2023-02-24T17:10:50.358Z,17.10
2023-02-24T17:13:21.050Z,17.65
2023-02-24T17:15:55.270Z,15.35
2023-02-24T17:18:25.674Z,14.65
2023-02-24T17:20:56.269Z,15.85
2023-02-24T17:23:24.894Z,16.05
2023-02-24T17:25:55.291Z,17.17
2023-02-24T17:28:23.075Z,16.98
2023-02-24T17:30:51.247Z,17.30
2023-02-24T17:33:20.799Z,15.35
2023-02-24T17:35:49.487Z,10.75
2023-02-24T17:38:19.811Z,9.30
2023-02-24T17:40:48.451Z,8.23
2023-02-24T17:43:16.698Z,7.88
2023-02-24T17:45:46.326Z,8.13
2023-02-24T17:48:15.083Z,10.90
2023-02-24T17:50:44.351Z,13.45
2023-02-24T17:53:12.941Z,10.65
2023-02-24T17:55:55.803Z,7.65
2023-02-24T17:58:28.271Z,7.57
2023-02-24T18:00:55.711Z,7.93
2023-02-24T18:03:23.596Z,8.10
2023-02-24T18:05:59.704Z,9.02
2023-02-24T18:08:28.764Z,8.27
2023-02-24T18:11:00.016Z,8.20
2023-02-24T18:13:31.465Z,8.35
2023-02-24T18:16:01.019Z,9.55
2023-02-24T18:18:31.435Z,10.10
2023-02-24T18:21:02.995Z,9.90
2023-02-24T18:23:30.922Z,11.27
2023-02-24T18:26:03.642Z,9.73
2023-02-24T18:28:32.255Z,9.50
2023-02-24T18:31:02.505Z,10.30
2023-02-24T18:33:31.537Z,10.15
2023-02-24T18:36:01.765Z,10.82
2023-02-24T18:38:31.645Z,10.20
2023-02-24T18:41:01.267Z,10.60
2023-02-24T18:43:30.763Z,10.05
2023-02-24T18:46:00.366Z,9.98
2023-02-24T18:48:30.536Z,10.32
2023-02-24T18:50:59.366Z,9.70
2023-02-24T18:53:31.302Z,9.18
2023-02-24T18:56:01.905Z,8.93
2023-02-24T18:58:32.089Z,6.70
2023-02-24T19:00:59.820Z,5.65
2023-02-24T19:03:28.092Z,7.50
2023-02-24T19:05:57.507Z,4.70
2023-02-24T19:08:28.991Z,4.95
2023-02-24T19:10:59.422Z,4.72
2023-02-24T19:13:27.688Z,4.57
2023-02-24T19:15:55.516Z,4.50
2023-02-24T19:18:24.010Z,5.35
2023-02-24T19:20:52.509Z,4.82
2023-02-24T19:23:20.981Z,4.55
2023-02-24T19:25:49.898Z,4.72
2023-02-24T19:28:18.303Z,4.03
2023-02-24T19:31:00.853Z,4.28
2023-02-24T19:33:47.720Z,4.78
2023-02-24T19:36:53.804Z,5.05
2023-02-24T19:43:03.036Z,4.45
2023-02-24T19:46:12.606Z,6.15
2023-02-24T19:49:14.020Z,4.78
2023-02-24T19:52:22.843Z,5.20
2023-02-24T19:55:32.069Z,4.40
2023-02-24T19:58:40.969Z,4.78
2023-02-24T20:01:44.369Z,4.20
2023-02-24T20:04:51.901Z,4.82
2023-02-24T20:07:53.605Z,3.58
2023-02-24T20:11:12.247Z,3.80
2023-02-24T20:14:22.232Z,4.30
2023-02-24T20:17:31.018Z,4.70
2023-02-24T20:20:43.130Z,4.63
2023-02-24T20:23:46.056Z,4.80
2023-02-24T20:26:53.963Z,4.70
2023-02-24T20:29:57.869Z,4.93
2023-02-24T20:33:07.178Z,4.63
2023-02-24T20:36:23.569Z,4.65
2023-02-24T20:39:31.690Z,4.47
2023-02-24T20:42:40.456Z,4.63
2023-02-24T20:45:50.327Z,4.53
2023-02-24T23:10:19.274Z,4.75
2023-02-24T23:13:27.270Z,5.68
2023-02-24T23:16:38.351Z,6.47
2023-02-24T23:19:46.284Z,5.68
2023-02-24T23:22:50.572Z,7.15
2023-02-24T23:25:59.289Z,6.25
2023-02-24T23:28:59.637Z,7.05
2023-02-24T23:32:06.397Z,7.93
2023-02-24T23:35:06.353Z,6.93
2023-02-24T23:38:14.269Z,6.60
2023-02-24T23:41:23.309Z,6.60
2023-02-24T23:44:23.660Z,6.95
2023-02-24T23:47:30.266Z,7.80
2023-02-24T23:50:31.926Z,7.50
2023-02-24T23:53:32.262Z,7.97
2023-02-24T23:56:41.288Z,8.82
2023-02-24T23:59:42.254Z,8.20
